createdAt,value
2023-01-23T00:01:57.461Z,-0.29
2023-01-23T00:06:58.348Z,-0.30
2023-01-23T00:11:59.504Z,-0.34
2023-01-23T00:17:00.278Z,-0.28
2023-01-23T00:22:01.051Z,-0.23
2023-01-23T00:27:01.939Z,-0.28
2023-01-23T00:32:03.195Z,-0.32
2023-01-23T00:37:04.144Z,-0.35
2023-01-23T00:42:05.503Z,-0.28
2023-01-23T00:47:06.516Z,-0.33
2023-01-23T00:52:07.329Z,-0.33
2023-01-23T00:57:08.163Z,-0.35
2023-01-23T01:02:09.040Z,-0.45
2023-01-23T01:07:09.802Z,-0.49
2023-01-23T01:12:10.974Z,-0.29
2023-01-23T01:17:11.767Z,-0.40
2023-01-23T01:22:12.521Z,-0.52
2023-01-23T01:27:13.381Z,-0.38
2023-01-23T01:32:14.429Z,-0.41
2023-01-23T01:37:15.186Z,-0.37
2023-01-23T01:42:16.801Z,-0.44
2023-01-23T01:47:17.652Z,-0.26
2023-01-23T01:52:21.305Z,-0.34
2023-01-23T01:57:29.653Z,-0.31
2023-01-23T02:02:52.656Z,-0.35
2023-01-23T02:08:04.541Z,-0.31
2023-01-23T02:13:29.639Z,-0.35
2023-01-23T02:18:33.882Z,-0.23
2023-01-23T02:23:54.479Z,-0.53
2023-01-23T02:28:58.573Z,-0.43
2023-01-23T02:34:02.876Z,-0.65
2023-01-23T02:39:13.499Z,-0.62
2023-01-23T02:44:26.150Z,-0.69
2023-01-23T02:49:30.196Z,-0.65
2023-01-23T02:54:31.051Z,-0.70
2023-01-23T02:59:50.264Z,-0.67
2023-01-23T03:04:51.346Z,-0.76
2023-01-23T03:09:53.700Z,-0.59
2023-01-23T03:14:55.729Z,-0.51
2023-01-23T03:19:56.967Z,-0.50
2023-01-23T03:24:58.094Z,-0.50
2023-01-23T03:30:15.183Z,-0.45
2023-01-23T03:35:19.453Z,-0.44
2023-01-23T03:40:41.323Z,-0.54
2023-01-23T03:45:43.260Z,-0.52
2023-01-23T03:50:45.055Z,-0.42
2023-01-23T03:55:46.900Z,-0.50
2023-01-23T04:00:48.751Z,-0.43
2023-01-23T04:05:56.293Z,-0.41
2023-01-23T04:11:06.645Z,-0.34
2023-01-23T04:16:07.631Z,-0.31
2023-01-23T04:21:09.741Z,-0.51
2023-01-23T04:26:10.966Z,-0.53
2023-01-23T04:31:12.165Z,-0.36
2023-01-23T04:36:13.594Z,-0.38
2023-01-23T04:41:20.995Z,-0.35
2023-01-23T04:46:22.267Z,-0.33
2023-01-23T04:51:33.661Z,-0.29
2023-01-23T04:56:34.488Z,-0.31
2023-01-23T05:01:36.556Z,-0.42
2023-01-23T05:06:38.056Z,-0.31
2023-01-23T05:11:39.592Z,-0.50
2023-01-23T05:16:42.053Z,-0.36
2023-01-23T05:21:52.406Z,-0.44
2023-01-23T05:26:54.683Z,-0.46
2023-01-23T05:31:55.945Z,-0.57
2023-01-23T05:37:25.019Z,-0.55
2023-01-23T05:42:27.660Z,-0.60
2023-01-23T05:47:47.920Z,-0.42
2023-01-23T05:52:50.849Z,-0.33
2023-01-23T05:57:52.247Z,-0.49
2023-01-23T06:03:11.795Z,-0.53
2023-01-23T06:08:23.800Z,-0.50
2023-01-23T06:13:26.783Z,-0.47
2023-01-23T06:18:27.540Z,-0.32
2023-01-23T06:23:29.021Z,-0.45
2023-01-23T06:28:32.374Z,-0.48
2023-01-23T06:33:33.393Z,-0.52
2023-01-23T06:38:34.739Z,-0.52
2023-01-23T06:43:37.310Z,-0.39
2023-01-23T06:48:39.574Z,-0.54
2023-01-23T06:53:40.949Z,-0.50
2023-01-23T06:58:45.631Z,-0.52
2023-01-23T07:03:54.646Z,-0.42
2023-01-23T07:08:56.091Z,-0.48
2023-01-23T07:13:57.276Z,-0.46
2023-01-23T07:19:00.857Z,-0.54
2023-01-23T07:24:05.931Z,-0.47
2023-01-23T07:29:08.110Z,-0.37
2023-01-23T07:34:08.973Z,-0.50
2023-01-23T07:39:09.740Z,-0.51
2023-01-23T07:44:16.857Z,-0.40
2023-01-23T07:49:17.733Z,-0.26
2023-01-23T07:54:19.033Z,-0.25
2023-01-23T07:59:19.782Z,-0.27
2023-01-23T08:04:20.675Z,-0.12
2023-01-23T08:09:21.643Z,-0.40
2023-01-23T08:14:22.463Z,-0.28
2023-01-23T08:19:26.574Z,-0.10
2023-01-23T08:24:27.310Z,-0.21
2023-01-23T08:29:28.145Z,-0.27
2023-01-23T08:34:28.993Z,-0.27
2023-01-23T08:39:29.798Z,-0.38
2023-01-23T08:44:33.404Z,-0.32
2023-01-23T08:49:34.124Z,-0.38
2023-01-23T08:54:35.290Z,-0.32
2023-01-23T08:59:36.033Z,-0.30
2023-01-23T09:04:37.007Z,-0.20
2023-01-23T09:09:37.792Z,-0.17
2023-01-23T09:14:38.715Z,-0.10
2023-01-23T09:19:39.440Z,-0.21
2023-01-23T09:24:40.220Z,-0.24
2023-01-23T09:29:40.951Z,-0.17
2023-01-23T09:34:42.066Z,-0.09
2023-01-23T09:39:43.430Z,-0.03
2023-01-23T09:44:56.524Z,0.01
2023-01-23T09:50:06.384Z,-0.26
2023-01-23T09:55:18.390Z,-0.13
2023-01-23T10:00:25.216Z,-0.18
2023-01-23T10:05:38.539Z,-0.12
2023-01-23T10:10:52.863Z,-0.07
2023-01-23T10:16:22.372Z,-0.24
2023-01-23T10:27:50.510Z,0.03
2023-01-23T10:33:38.689Z,-0.30
2023-01-23T10:38:56.771Z,-0.41
2023-01-23T10:43:59.483Z,-0.41
2023-01-23T10:49:01.742Z,-0.21
2023-01-23T10:54:16.953Z,-0.21
2023-01-23T10:59:34.474Z,-0.10
2023-01-23T11:04:36.170Z,-0.13
2023-01-23T11:09:55.342Z,-0.17
2023-01-23T11:15:23.267Z,-0.27
2023-01-23T11:20:34.501Z,-0.13
2023-01-23T11:25:47.145Z,0.01
2023-01-23T11:31:15.921Z,0.39
2023-01-23T11:36:37.235Z,0.51
2023-01-23T11:41:39.004Z,0.40
2023-01-23T11:47:09.629Z,0.40
2023-01-23T11:52:57.315Z,0.40
2023-01-23T11:58:49.045Z,0.34
2023-01-23T12:10:55.923Z,0.30
2023-01-23T12:20:38.873Z,0.20
2023-01-23T12:25:42.167Z,0.30
2023-01-23T12:35:45.639Z,0.33
2023-01-23T12:41:24.454Z,0.29
2023-01-23T12:46:33.224Z,0.35
2023-01-23T12:51:38.376Z,0.44
2023-01-23T12:56:41.087Z,0.39
2023-01-23T13:01:55.029Z,0.53
2023-01-23T13:07:07.792Z,0.54
2023-01-23T13:12:22.963Z,0.43
2023-01-23T13:19:11.455Z,0.24
2023-01-23T13:28:01.085Z,0.29
2023-01-23T13:36:13.987Z,0.54
2023-01-23T13:41:27.893Z,0.60
2023-01-23T13:46:43.967Z,0.57
2023-01-23T13:51:45.230Z,0.97
2023-01-23T13:56:48.596Z,1.41
2023-01-23T14:02:23.166Z,2.41
2023-01-23T14:07:48.465Z,3.62
2023-01-23T14:12:51.126Z,3.45
2023-01-23T14:17:52.018Z,2.59
2023-01-23T14:22:54.624Z,2.12
2023-01-23T14:28:03.807Z,2.34
2023-01-23T14:33:10.953Z,2.93
2023-01-23T14:38:22.268Z,2.55
2023-01-23T14:43:27.642Z,2.04
2023-01-23T14:48:31.402Z,1.75
2023-01-23T14:53:32.268Z,1.61
2023-01-23T14:58:33.459Z,1.37
2023-01-23T15:03:55.379Z,1.06
2023-01-23T15:09:06.878Z,0.85
2023-01-23T15:14:26.130Z,0.68
2023-01-23T15:19:27.813Z,0.61
2023-01-23T15:24:28.680Z,0.42
2023-01-23T15:29:30.431Z,0.49
2023-01-23T15:34:33.587Z,0.40
2023-01-23T15:39:53.601Z,0.35
2023-01-23T15:44:54.660Z,0.23
2023-01-23T15:49:55.721Z,0.15
2023-01-23T15:55:00.817Z,0.11
2023-01-23T16:00:12.677Z,0.09
2023-01-23T16:05:13.618Z,0.03
2023-01-23T16:10:29.625Z,-0.05
2023-01-23T16:15:33.343Z,0.03
2023-01-23T16:20:39.754Z,0.08
2023-01-23T16:25:45.788Z,-0.09
2023-01-23T16:30:49.932Z,-0.04
2023-01-23T16:35:51.403Z,-0.02
2023-01-23T16:40:53.784Z,-0.13
2023-01-23T16:45:56.491Z,-0.17
2023-01-23T16:51:43.079Z,-0.19
2023-01-23T16:56:47.087Z,-0.23
2023-01-23T17:01:50.750Z,-0.22
2023-01-23T17:06:51.709Z,-0.27
2023-01-23T17:11:55.849Z,-0.29
2023-01-23T17:17:09.646Z,-0.28
2023-01-23T17:22:26.599Z,-0.25
2023-01-23T17:27:27.569Z,-0.33
2023-01-23T17:32:33.815Z,-0.28
2023-01-23T17:37:34.794Z,-0.28
2023-01-23T17:42:35.618Z,-0.11
2023-01-23T17:47:36.867Z,-0.20
2023-01-23T17:52:37.639Z,-0.15
2023-01-23T17:57:38.466Z,-0.16
2023-01-23T18:02:40.103Z,-0.10
2023-01-23T18:07:53.111Z,-0.11
2023-01-23T18:13:45.347Z,-0.08
2023-01-23T18:18:52.260Z,-0.37
2023-01-23T18:23:53.892Z,-0.15
2023-01-23T18:29:30.992Z,-0.18
2023-01-23T18:34:47.222Z,-0.23
2023-01-23T18:42:31.269Z,-0.25
2023-01-23T18:47:32.504Z,-0.28
2023-01-23T18:52:50.417Z,-0.29
2023-01-23T18:58:39.569Z,-0.35
2023-01-23T19:03:44.049Z,-0.42
2023-01-23T19:08:45.188Z,-0.39
2023-01-23T19:14:15.620Z,-0.27
2023-01-23T19:22:04.766Z,-0.28
2023-01-23T19:27:22.774Z,-0.38
2023-01-23T19:32:24.095Z,-0.46
2023-01-23T19:37:25.467Z,-0.46
2023-01-23T19:42:26.239Z,-0.46
2023-01-23T19:47:27.007Z,-0.49
2023-01-23T19:52:27.752Z,-0.41
2023-01-23T19:57:29.746Z,-0.43
2023-01-23T20:02:30.676Z,-0.49
2023-01-23T20:07:31.488Z,-0.71
2023-01-23T20:12:38.967Z,-0.65
2023-01-23T20:17:40.669Z,-0.46
2023-01-23T20:22:42.799Z,-0.44
2023-01-23T20:27:44.054Z,-0.53
2023-01-23T20:32:44.907Z,-0.48
2023-01-23T20:37:45.747Z,-0.38
2023-01-23T20:42:46.531Z,-0.59
2023-01-23T20:47:47.247Z,-0.60
2023-01-23T20:53:06.496Z,-0.53
2023-01-23T20:58:25.876Z,-0.58
2023-01-23T21:03:26.665Z,-0.63
2023-01-23T21:08:27.647Z,-0.65
2023-01-23T21:13:28.376Z,-0.56
2023-01-23T21:18:29.814Z,-0.59
2023-01-23T21:23:30.563Z,-0.50
2023-01-23T21:28:34.380Z,-0.51
2023-01-23T21:33:35.334Z,-0.34
2023-01-23T21:38:36.287Z,-0.46
2023-01-23T21:43:37.185Z,-0.22
2023-01-23T21:48:38.608Z,-0.44
2023-01-23T21:53:42.448Z,-0.39
2023-01-23T21:58:43.915Z,-0.37
2023-01-23T22:03:44.868Z,-0.51
2023-01-23T22:08:45.730Z,-0.69
2023-01-23T22:13:46.739Z,-0.64
2023-01-23T22:18:47.553Z,-0.65
2023-01-23T22:23:48.328Z,-0.73
2023-01-23T22:28:49.969Z,-0.69
2023-01-23T22:33:50.710Z,-0.74
2023-01-23T22:38:53.178Z,-0.70
2023-01-23T22:43:55.349Z,-0.59
2023-01-23T22:48:56.129Z,-0.68
2023-01-23T22:53:58.100Z,-0.68
2023-01-23T22:59:00.901Z,-0.53
2023-01-23T23:04:02.104Z,-0.54
2023-01-23T23:09:04.432Z,-0.27
2023-01-23T23:14:05.600Z,-0.39
2023-01-23T23:19:06.428Z,-0.32
2023-01-23T23:24:09.940Z,-0.26
2023-01-23T23:29:10.810Z,-0.18
2023-01-23T23:34:11.864Z,-0.14
2023-01-23T23:39:12.723Z,-0.15
2023-01-23T23:44:13.484Z,-0.16
2023-01-23T23:49:14.249Z,-0.25
2023-01-23T23:54:14.995Z,-0.14
2023-01-23T23:59:15.982Z,-0.14
